Latest Weather Observations for Evans Head

IDN60801

Issued at 11:32 pm EST Friday 29 April 2016 (issued every 30 minutes, with the page automatically refreshed every 10 minutes)

About weather observations | Map of weather stations | Latest weather observations for NSW | Other Formats
Station Details ID: 058212 Name: EVANS HEAD RAAF BOMBING RANGE AWS Lat: -29.18 Lon: 153.40 Height: 62.5 m
Data from the previous 72 hours. | See also: Recent months at Evans Head
Date/Time
EST
Temp
°C
App
Temp
°C
Dew
Point
Rel
Hum
%
Delta-T
°C
Wind Press
QNH
hPa
Press
MSL
hPa
Rain
since 9 am
mm
Dir
 
Spd
km/h
Gust
km/h
Spd
kts
Gust
kts
29/11:30pm 19.2 21.1 18.9 98 0.2 N 7 9 4 5 1022.3 1022.1 0.0
29/11:00pm 19.3 20.5 19.1 99 0.1 N 11 13 6 7 1022.5 1022.3 0.0
29/10:30pm 19.2 20.7 18.9 98 0.2 N 9 11 5 6 1023.0 1022.8 0.0
29/10:00pm 19.4 21.0 19.1 98 0.2 N 9 11 5 6 1022.9 1022.7 0.0
29/09:30pm 19.4 21.0 19.1 98 0.2 N 9 11 5 6 1023.0 1022.8 0.0
29/09:00pm 19.6 21.3 19.3 98 0.2 N 9 11 5 6 1023.0 1022.8 0.0
29/08:30pm 19.7 21.4 19.4 98 0.2 N 9 13 5 7 1023.0 1022.8 0.0
29/08:00pm 19.5 20.8 19.2 98 0.2 N 11 13 6 7 1022.7 1022.5 0.0
29/07:30pm 19.8 21.2 19.5 98 0.2 N 11 13 6 7 1022.5 1022.3 0.0
29/07:00pm 20.2 22.2 19.9 98 0.2 NNE 9 15 5 8 1022.3 1022.1 0.0
29/06:30pm 20.4 22.5 20.1 98 0.2 NNE 9 13 5 7 1022.2 1022.0 0.0
29/06:00pm 20.9 23.2 20.6 98 0.2 NE 9 11 5 6 1021.9 1021.7 0.0
29/05:30pm 21.2 24.2 20.9 98 0.2 NE 6 9 3 5 1021.9 1021.7 0.0
29/05:00pm 21.6 24.1 21.1 97 0.3 E 9 13 5 7 1021.6 1021.4 0.0
29/04:30pm 22.3 25.0 21.3 94 0.7 ENE 9 13 5 7 1021.5 1021.3 0.0
29/04:00pm 22.5 24.4 20.6 89 1.2 ESE 11 15 6 8 1021.3 1021.1 0.0
29/03:30pm 22.7 25.5 20.8 89 1.2 E 7 13 4 7 1021.5 1021.3 0.0
29/03:00pm 23.4 25.1 20.2 82 2.1 E 11 17 6 9 1021.2 1021.0 0.0
29/02:30pm 23.3 25.4 20.1 82 2.1 E 9 15 5 8 1021.3 1021.1 0.0
29/02:00pm 23.7 25.4 19.4 77 2.7 E 9 19 5 10 1021.4 1021.2 0.0
29/01:30pm 23.4 25.3 19.8 80 2.3 ESE 9 15 5 8 1021.7 1021.5 0.0
29/01:00pm 24.1 25.9 20.4 80 2.4 ESE 11 17 6 9 1021.8 1021.6 0.0
29/12:30pm 24.7 27.0 20.6 78 2.7 ESE 9 13 5 7 1022.3 1022.1 0.0
29/12:00pm 23.8 25.5 19.3 76 2.9 SE 9 13 5 7 1023.0 1022.8 0.0
29/11:30am 23.9 26.0 19.4 76 2.9 S 7 11 4 6 1023.4 1023.2 0.0
29/11:00am 23.7 24.8 19.6 78 2.6 SSE 13 17 7 9 1023.8 1023.6 0.0
29/10:30am 23.3 26.6 20.8 86 1.6 SW 4 9 2 5 1024.3 1024.1 0.0
29/10:00am 22.9 25.8 21.0 89 1.2 SW 7 13 4 7 1024.8 1024.6 0.0
29/09:30am 22.1 25.2 21.4 96 0.5 SSW 7 11 4 6 1024.9 1024.7 0.0
29/09:00am 20.7 23.2 20.2 97 0.3 SW 7 13 4 7 1024.9 1024.7 0.4
29/08:30am 20.0 21.5 19.7 98 0.2 SSW 11 15 6 8 1025.0 1024.8 0.4
29/08:00am 19.1 20.6 18.9 99 0.1 SSW 9 15 5 8 1025.0 1024.8 0.4
29/07:30am 17.6 18.5 17.6 100 0.0 SW 9 13 5 7 1024.8 1024.6 0.4
29/07:00am 16.7 17.6 16.5 99 0.1 W 7 11 4 6 1024.3 1024.1 0.4
29/06:30am 16.8 16.6 16.6 99 0.1 WSW 13 15 7 8 1024.2 1024.0 0.0
29/06:00am 16.8 16.6 16.6 99 0.1 SW 13 17 7 9 1023.9 1023.7 0.0
29/05:30am 16.8 16.6 16.6 99 0.1 SW 13 17 7 9 1023.5 1023.3 0.0
29/05:00am 17.0 16.5 16.8 99 0.1 WSW 15 17 8 9 1023.4 1023.2 0.0
29/04:30am 17.3 17.3 17.1 99 0.1 SW 13 17 7 9 1023.4 1023.2 0.0
29/04:00am 17.8 18.3 17.5 98 0.2 SW 11 13 6 7 1023.1 1022.9 0.0
29/03:30am 18.0 18.6 17.7 98 0.2 WSW 11 13 6 7 1023.0 1022.8 0.0
29/03:00am 18.1 19.1 17.8 98 0.2 SW 9 11 5 6 1022.9 1022.7 0.0
29/02:30am 17.8 17.6 17.5 98 0.2 WSW 15 15 8 8 1023.5 1023.3 0.0
29/02:00am 18.3 18.6 18.0 98 0.2 WSW 13 15 7 8 1023.6 1023.4 0.0
29/01:30am 18.5 19.2 18.0 97 0.3 SW 11 11 6 6 1023.8 1023.6 0.0
29/01:00am 18.8 20.1 18.5 98 0.2 SSW 9 11 5 6 1024.0 1023.8 0.0
29/12:30am 18.6 19.4 18.1 97 0.3 WSW 11 13 6 7 1024.4 1024.2 0.0
29/12:00am 18.4 19.2 18.1 98 0.2 WSW 11 13 6 7 1024.3 1024.1 0.0
 
Date/Time
EST
Temp
°C
App
Temp
°C
Dew
Point
Rel
Hum
%
Delta-T
°C
Wind Press
QNH
hPa
Press
MSL
hPa
Rain
since 9 am
mm
Dir
 
Spd
km/h
Gust
km/h
Spd
kts
Gust
kts
28/11:30pm 18.9 19.9 18.6 98 0.2 WSW 11 13 6 7 1024.3 1024.1 0.0
28/11:00pm 18.5 18.9 18.2 98 0.2 WSW 13 15 7 8 1024.6 1024.4 0.0
28/10:30pm 18.8 20.0 18.3 97 0.3 WSW 9 11 5 6 1024.7 1024.5 0.0
28/10:00pm 19.6 21.8 19.1 97 0.3 S 6 7 3 4 1024.8 1024.6 0.0
28/09:30pm 20.0 22.9 18.3 90 1.1 CALM 0 7 0 4 1024.7 1024.5 0.0
28/09:00pm 20.5 22.2 18.4 88 1.3 NE 7 11 4 6 1024.6 1024.4 0.0
28/08:30pm 20.5 22.0 18.8 90 1.1 ENE 9 11 5 6 1024.6 1024.4 0.0
28/08:00pm 20.4 22.1 18.5 89 1.2 ENE 7 9 4 5 1024.4 1024.2 0.0
28/07:30pm 20.4 22.0 18.3 88 1.3 ENE 7 9 4 5 1024.3 1024.1 0.0
28/07:00pm 20.4 22.0 18.2 87 1.4 ENE 7 11 4 6 1024.0 1023.8 0.0
28/06:30pm 20.3 21.4 17.9 86 1.5 ENE 9 11 5 6 1023.8 1023.6 0.0
28/06:00pm 20.3 21.1 17.3 83 1.8 E 9 13 5 7 1023.7 1023.5 0.0
28/05:30pm 20.5 21.4 17.5 83 1.8 E 9 11 5 6 1023.4 1023.2 0.0
28/05:00pm 20.6 21.6 17.8 84 1.7 E 9 11 5 6 1023.2 1023.0 0.0
28/04:30pm 21.2 21.7 17.4 79 2.3 E 11 17 6 9 1023.0 1022.8 0.0
28/04:00pm 22.3 23.0 17.9 76 2.7 ESE 11 17 6 9 1023.1 1022.9 0.0
28/03:30pm 22.7 22.8 19.1 80 2.3 SE 17 20 9 11 1022.9 1022.7 0.0
28/03:00pm 23.2 23.7 20.0 82 2.1 SE 17 22 9 12 1023.0 1022.8 0.0
28/02:30pm 23.6 24.8 20.7 84 1.9 SE 15 20 8 11 1023.0 1022.8 0.0
28/02:00pm 23.3 24.0 20.4 84 1.9 SSE 17 22 9 12 1023.2 1023.0 0.0
28/01:30pm 23.8 24.7 20.9 84 1.9 SSE 17 22 9 12 1023.2 1023.0 0.0
28/01:00pm 24.3 25.4 21.2 83 2.0 SSE 17 22 9 12 1023.4 1023.2 0.0
28/12:30pm 24.2 25.8 21.5 85 1.8 SSE 15 20 8 11 1023.8 1023.6 0.0
28/12:00pm 23.7 24.8 21.2 86 1.6 SSE 17 22 9 12 1024.2 1024.0 0.0
28/11:30am 23.9 25.5 21.4 86 1.7 SSE 15 20 8 11 1024.4 1024.2 0.0
28/11:00am 22.9 24.8 20.6 87 1.5 SSE 11 17 6 9 1025.0 1024.8 0.0
28/10:30am 22.9 25.6 22.2 96 0.5 SSE 11 17 6 9 1025.2 1025.0 0.0
28/10:00am 22.5 25.5 22.0 97 0.3 S 9 13 5 7 1025.2 1025.0 0.0
28/09:30am 22.0 24.9 21.7 98 0.2 S 9 13 5 7 1025.2 1025.0 0.0
28/09:00am 21.5 24.1 21.2 98 0.2 SSW 9 15 5 8 1025.1 1024.9 23.6
28/08:30am 20.4 22.9 20.2 99 0.1 SW 7 9 4 5 1025.1 1024.9 23.6
28/08:00am 19.3 21.0 19.3 100 0.0 SSW 9 13 5 7 1024.8 1024.6 23.6
28/07:30am 18.3 18.8 18.3 100 0.0 SSW 13 19 7 10 1024.5 1024.3 23.6
28/07:00am 17.9 18.6 17.9 100 0.0 SSW 11 15 6 8 1024.4 1024.2 23.4
28/06:30am 18.0 18.3 18.0 100 0.0 SSW 13 19 7 10 1024.3 1024.1 22.8
28/06:00am 18.0 18.3 18.0 100 0.0 SSW 13 17 7 9 1024.2 1024.0 22.0
28/05:30am 17.9 19.3 17.9 100 0.0 SSW 7 9 4 5 1024.0 1023.8 20.4
28/05:00am 17.9 19.0 17.9 100 0.0 WSW 9 13 5 7 1023.6 1023.4 20.4
28/04:30am 18.1 18.9 18.1 100 0.0 SW 11 15 6 8 1023.3 1023.1 20.2
28/04:00am 18.0 19.5 18.0 100 0.0 WSW 7 11 4 6 1023.5 1023.3 19.4
28/03:30am 17.8 18.4 17.8 100 0.0 SSW 11 13 6 7 1023.4 1023.2 19.4
28/03:00am 17.9 19.0 17.9 100 0.0 WSW 9 13 5 7 1023.4 1023.2 19.4
28/02:30am 17.8 18.8 17.8 100 0.0 SSW 9 9 5 5 1023.7 1023.5 18.6
28/02:00am 17.8 18.4 17.8 100 0.0 WSW 11 15 6 8 1023.7 1023.5 18.6
28/01:30am 18.0 18.7 18.0 100 0.0 SSW 11 19 6 10 1024.2 1024.0 18.6
28/01:00am 17.8 18.4 17.8 100 0.0 WSW 11 15 6 8 1024.5 1024.3 15.8
28/12:30am 17.8 18.8 17.8 100 0.0 W 9 13 5 7 1024.5 1024.3 14.4
28/12:00am 17.8 18.4 17.8 100 0.0 WSW 11 15 6 8 1024.5 1024.3 14.4
 
Date/Time
EST
Temp
°C
App
Temp
°C
Dew
Point
Rel
Hum
%
Delta-T
°C
Wind Press
QNH
hPa
Press
MSL
hPa
Rain
since 9 am
mm
Dir
 
Spd
km/h
Gust
km/h
Spd
kts
Gust
kts
27/11:30pm 18.3 18.4 18.3 100 0.0 SSW 15 20 8 11 1024.5 1024.3 14.4
27/11:00pm 17.9 18.5 17.7 99 0.1 SW 11 15 6 8 1024.5 1024.3 6.6
27/10:30pm 17.7 17.8 17.5 99 0.1 SSW 13 19 7 10 1024.7 1024.5 6.6
27/10:00pm 18.1 18.8 17.9 99 0.1 S 11 15 6 8 1024.8 1024.6 5.0
27/09:30pm 18.1 18.4 17.8 98 0.2 WSW 13 17 7 9 1024.6 1024.4 4.0
27/09:00pm 18.1 18.4 17.9 99 0.1 WSW 13 17 7 9 1024.7 1024.5 4.0
27/08:30pm 18.1 18.8 17.9 99 0.1 WSW 11 15 6 8 1024.7 1024.5 4.0
27/08:00pm 18.3 18.7 18.1 99 0.1 SW 13 15 7 8 1024.6 1024.4 4.0
27/07:30pm 18.4 18.8 18.2 99 0.1 WSW 13 15 7 8 1024.5 1024.3 4.0
27/07:00pm 18.7 19.6 18.5 99 0.1 SW 11 13 6 7 1024.3 1024.1 4.0
27/06:30pm 19.2 20.7 18.9 98 0.2 NNW 9 13 5 7 1024.3 1024.1 0.6
27/06:00pm 20.0 22.7 19.5 97 0.3 NNE 4 7 2 4 1024.2 1024.0 0.0
27/05:30pm 20.0 21.4 19.5 97 0.3 ESE 11 17 6 9 1023.8 1023.6 0.0
27/05:00pm 19.8 19.6 19.3 97 0.3 SE 19 28 10 15 1023.5 1023.3 0.0
27/04:30pm 19.8 18.2 19.3 97 0.3 SE 26 39 14 21 1023.3 1023.1 0.0
27/04:00pm 21.3 20.1 18.5 84 1.7 E 22 33 12 18 1023.2 1023.0 0.0
27/03:30pm 21.8 19.6 18.8 83 1.9 N 28 39 15 21 1022.9 1022.7 0.0
27/03:00pm 22.3 21.2 18.7 80 2.3 N 22 35 12 19 1022.9 1022.7 0.0
27/02:30pm 23.5 22.2 18.2 72 3.3 NE 22 32 12 17 1023.0 1022.8 0.0
27/02:00pm 23.3 22.0 18.2 73 3.2 NE 22 32 12 17 1023.2 1023.0 0.0
27/01:30pm 24.7 25.1 19.1 71 3.6 NE 15 22 8 12 1023.3 1023.1 0.0
27/01:00pm 24.1 23.6 17.8 68 3.9 NNE 17 24 9 13 1023.6 1023.4 0.0
27/12:30pm 23.5 22.2 16.8 66 4.1 N 19 26 10 14 1023.9 1023.7 0.0
27/12:00pm 24.7 24.3 18.9 70 3.7 ENE 19 26 10 14 1024.2 1024.0 0.0
27/11:30am 22.7 21.7 16.7 69 3.7 N 17 24 9 13 1024.6 1024.4 0.0
27/11:00am 24.1 24.4 17.8 68 3.9 NNE 13 20 7 11 1025.0 1024.8 0.0
27/10:30am 24.9 24.5 17.1 62 4.8 ENE 15 22 8 12 1025.2 1025.0 0.0
27/10:00am 24.1 24.4 16.9 64 4.4 SE 11 17 6 9 1025.5 1025.3 0.0
27/09:30am 22.8 22.7 16.1 66 4.1 SSE 11 19 6 10 1025.7 1025.5 0.0
27/09:00am 22.4 23.7 18.4 78 2.5 SSE 9 15 5 8 1025.8 1025.6 0.4
27/08:30am 20.8 22.0 19.1 90 1.1 S 11 17 6 9 1025.8 1025.6 0.4
27/08:00am 19.1 20.5 18.6 97 0.3 SSW 9 11 5 6 1025.6 1025.4 0.4
27/07:30am 17.4 17.7 17.1 98 0.2 S 11 17 6 9 1025.2 1025.0 0.4
27/07:00am 16.9 16.3 16.6 98 0.2 SW 15 19 8 10 1025.1 1024.9 0.4
27/06:30am 16.3 15.8 16.0 98 0.2 SSW 13 17 7 9 1024.9 1024.7 0.4
27/06:00am 16.7 16.4 16.4 98 0.2 SSW 13 17 7 9 1024.8 1024.6 0.4
27/05:30am 17.5 17.8 17.0 97 0.3 SSW 11 15 6 8 1024.7 1024.5 0.4
27/05:00am 19.5 19.1 17.1 86 1.5 SE 15 22 8 12 1024.6 1024.4 0.4
27/04:30am 20.7 19.3 16.5 77 2.5 ESE 19 26 10 14 1024.4 1024.2 0.4
27/04:00am 19.4 20.5 18.1 92 0.8 SE 9 17 5 9 1024.4 1024.2 0.4
27/03:30am 18.3 18.6 17.8 97 0.3 SE 13 20 7 11 1024.5 1024.3 0.4
27/03:00am 18.6 19.5 18.3 98 0.2 SSE 11 15 6 8 1024.7 1024.5 0.2
27/02:30am 18.1 20.1 17.8 98 0.2 S 4 9 2 5 1024.8 1024.6 0.2
27/02:00am 18.1 20.1 17.8 98 0.2 NW 4 11 2 6 1024.9 1024.7 0.2
27/01:30am 18.3 17.8 17.8 97 0.3 ESE 17 26 9 14 1025.1 1024.9 0.2
27/01:00am 18.1 19.0 17.5 96 0.4 SSE 9 9 5 5 1025.2 1025.0 0.2
27/12:30am 18.3 18.9 17.8 97 0.3 SE 11 17 6 9 1025.6 1025.4 0.2
27/12:02am 19.2 14.8 17.5 90 1.0 ESE 37 56 20 30 1025.5 1025.3 0.2
27/12:00am 19.6 15.7 18.8 95 0.5 ESE 37 54 20 29 1025.5 1025.3 0.2
 
Date/Time
EST
Temp
°C
App
Temp
°C
Dew
Point
Rel
Hum
%
Delta-T
°C
Wind Press
QNH
hPa
Press
MSL
hPa
Rain
since 9 am
mm
Dir
 
Spd
km/h
Gust
km/h
Spd
kts
Gust
kts
26/11:50pm 20.5 18.1 18.3 87 1.4 E 28 46 15 25 1025.6 1025.4 0.2

Other Formats:

Comma delimited format used in spreadsheet applications
http://www.bom.gov.au/fwo/IDN60801/IDN60801.94598.axf

JavaScript Object Notation format (JSON) in row-major order
http://www.bom.gov.au/fwo/IDN60801/IDN60801.94598.json